sensor_id;sensor_type;location;lat;lon;timestamp;temperature;humidity
41058;DHT22;66768;48.884;2.258;2023-03-12T00:02:12;10.40;99.90
41058;DHT22;66768;48.884;2.258;2023-03-12T00:04:39;10.40;99.90
41058;DHT22;66768;48.884;2.258;2023-03-12T00:07:05;10.50;99.90
41058;DHT22;66768;48.884;2.258;2023-03-12T00:09:36;10.40;99.90
41058;DHT22;66768;48.884;2.258;2023-03-12T00:12:04;10.40;99.90
41058;DHT22;66768;48.884;2.258;2023-03-12T00:14:31;10.50;99.90
41058;DHT22;66768;48.884;2.258;2023-03-12T00:16:58;10.50;99.90
41058;DHT22;66768;48.884;2.258;2023-03-12T00:19:25;10.50;99.90
41058;DHT22;66768;48.884;2.258;2023-03-12T00:21:52;10.50;99.90
41058;DHT22;66768;48.884;2.258;2023-03-12T00:24:19;10.60;99.90
41058;DHT22;66768;48.884;2.258;2023-03-12T00:26:47;10.60;99.90
41058;DHT22;66768;48.884;2.258;2023-03-12T00:29:14;10.60;99.90
41058;DHT22;66768;48.884;2.258;2023-03-12T00:31:41;10.60;99.90
41058;DHT22;66768;48.884;2.258;2023-03-12T00:34:08;10.60;99.90
41058;DHT22;66768;48.884;2.258;2023-03-12T00:36:36;10.60;99.90
41058;DHT22;66768;48.884;2.258;2023-03-12T00:39:03;10.60;99.90
41058;DHT22;66768;48.884;2.258;2023-03-12T00:41:30;10.50;99.90
41058;DHT22;66768;48.884;2.258;2023-03-12T00:43:58;10.60;99.90
41058;DHT22;66768;48.884;2.258;2023-03-12T00:46:25;10.60;99.90
41058;DHT22;66768;48.884;2.258;2023-03-12T00:48:52;10.60;99.90
41058;DHT22;66768;48.884;2.258;2023-03-12T00:51:19;10.60;99.90
41058;DHT22;66768;48.884;2.258;2023-03-12T00:53:46;10.60;99.90
41058;DHT22;66768;48.884;2.258;2023-03-12T00:56:13;10.60;99.90
41058;DHT22;66768;48.884;2.258;2023-03-12T00:58:40;10.70;99.90
41058;DHT22;66768;48.884;2.258;2023-03-12T01:01:09;10.70;99.90
41058;DHT22;66768;48.884;2.258;2023-03-12T01:03:36;10.70;99.90
41058;DHT22;66768;48.884;2.258;2023-03-12T01:06:04;10.70;99.90
41058;DHT22;66768;48.884;2.258;2023-03-12T01:08:31;10.70;99.90
41058;DHT22;66768;48.884;2.258;2023-03-12T01:10:58;10.70;99.90
41058;DHT22;66768;48.884;2.258;2023-03-12T01:13:25;10.80;99.90
41058;DHT22;66768;48.884;2.258;2023-03-12T01:15:52;10.80;99.90
41058;DHT22;66768;48.884;2.258;2023-03-12T01:18:20;10.80;99.90
41058;DHT22;66768;48.884;2.258;2023-03-12T01:20:47;10.80;99.90
41058;DHT22;66768;48.884;2.258;2023-03-12T01:23:14;10.80;99.90
41058;DHT22;66768;48.884;2.258;2023-03-12T01:25:41;10.80;99.90
41058;DHT22;66768;48.884;2.258;2023-03-12T01:28:08;10.80;99.90
41058;DHT22;66768;48.884;2.258;2023-03-12T01:30:35;10.80;99.90
41058;DHT22;66768;48.884;2.258;2023-03-12T01:33:02;10.80;99.90
41058;DHT22;66768;48.884;2.258;2023-03-12T01:35:34;10.80;99.90
41058;DHT22;66768;48.884;2.258;2023-03-12T01:38:01;10.80;99.90
41058;DHT22;66768;48.884;2.258;2023-03-12T01:40:28;10.80;99.90
41058;DHT22;66768;48.884;2.258;2023-03-12T01:42:58;10.80;99.90
41058;DHT22;66768;48.884;2.258;2023-03-12T01:45:57;10.80;99.90
41058;DHT22;66768;48.884;2.258;2023-03-12T01:48:27;10.80;99.90
41058;DHT22;66768;48.884;2.258;2023-03-12T01:50:57;10.80;99.90
41058;DHT22;66768;48.884;2.258;2023-03-12T01:53:25;10.80;99.90
41058;DHT22;66768;48.884;2.258;2023-03-12T01:55:52;10.80;99.90
41058;DHT22;66768;48.884;2.258;2023-03-12T01:58:19;10.80;99.90
41058;DHT22;66768;48.884;2.258;2023-03-12T02:00:46;10.90;99.90
41058;DHT22;66768;48.884;2.258;2023-03-12T02:03:14;10.80;99.90
41058;DHT22;66768;48.884;2.258;2023-03-12T02:05:44;10.80;99.90
41058;DHT22;66768;48.884;2.258;2023-03-12T02:08:15;10.90;99.90
41058;DHT22;66768;48.884;2.258;2023-03-12T02:10:43;10.80;99.90
41058;DHT22;66768;48.884;2.258;2023-03-12T02:13:10;10.90;99.90
41058;DHT22;66768;48.884;2.258;2023-03-12T02:15:38;10.80;99.90
41058;DHT22;66768;48.884;2.258;2023-03-12T02:18:07;10.80;99.90
41058;DHT22;66768;48.884;2.258;2023-03-12T02:20:40;10.80;99.90
41058;DHT22;66768;48.884;2.258;2023-03-12T02:23:11;10.80;99.90
41058;DHT22;66768;48.884;2.258;2023-03-12T02:25:43;10.80;99.90
41058;DHT22;66768;48.884;2.258;2023-03-12T02:28:13;10.80;99.90
41058;DHT22;66768;48.884;2.258;2023-03-12T02:30:43;10.80;99.90
41058;DHT22;66768;48.884;2.258;2023-03-12T02:33:11;10.80;99.90
41058;DHT22;66768;48.884;2.258;2023-03-12T02:35:39;10.80;99.90
41058;DHT22;66768;48.884;2.258;2023-03-12T02:38:28;10.80;99.90
41058;DHT22;66768;48.884;2.258;2023-03-12T02:40:59;10.80;99.90
41058;DHT22;66768;48.884;2.258;2023-03-12T02:43:27;10.80;99.90
41058;DHT22;66768;48.884;2.258;2023-03-12T02:45:54;10.80;99.90
41058;DHT22;66768;48.884;2.258;2023-03-12T02:48:21;10.90;99.90
41058;DHT22;66768;48.884;2.258;2023-03-12T02:50:48;10.90;99.90
41058;DHT22;66768;48.884;2.258;2023-03-12T02:53:15;10.90;99.90
41058;DHT22;66768;48.884;2.258;2023-03-12T02:55:42;10.80;99.90
41058;DHT22;66768;48.884;2.258;2023-03-12T02:58:10;10.90;99.90
41058;DHT22;66768;48.884;2.258;2023-03-12T03:00:37;10.90;99.90
41058;DHT22;66768;48.884;2.258;2023-03-12T03:03:03;10.90;99.90
41058;DHT22;66768;48.884;2.258;2023-03-12T03:05:30;10.90;99.90
41058;DHT22;66768;48.884;2.258;2023-03-12T03:07:57;10.90;99.90
41058;DHT22;66768;48.884;2.258;2023-03-12T03:10:25;10.90;99.90
41058;DHT22;66768;48.884;2.258;2023-03-12T03:12:51;10.90;99.90
41058;DHT22;66768;48.884;2.258;2023-03-12T03:15:20;11.00;99.90
41058;DHT22;66768;48.884;2.258;2023-03-12T03:17:47;11.00;99.90
41058;DHT22;66768;48.884;2.258;2023-03-12T03:20:14;11.00;99.90
41058;DHT22;66768;48.884;2.258;2023-03-12T03:22:41;11.00;99.90
41058;DHT22;66768;48.884;2.258;2023-03-12T03:25:09;11.00;99.90
41058;DHT22;66768;48.884;2.258;2023-03-12T03:27:36;11.00;99.90
41058;DHT22;66768;48.884;2.258;2023-03-12T03:30:04;11.00;99.90
41058;DHT22;66768;48.884;2.258;2023-03-12T03:32:32;11.00;99.90
41058;DHT22;66768;48.884;2.258;2023-03-12T03:34:59;11.00;99.90
41058;DHT22;66768;48.884;2.258;2023-03-12T03:37:26;11.00;99.90
41058;DHT22;66768;48.884;2.258;2023-03-12T03:39:53;11.00;99.90
41058;DHT22;66768;48.884;2.258;2023-03-12T03:42:20;10.90;99.90
41058;DHT22;66768;48.884;2.258;2023-03-12T03:44:46;11.00;99.90
41058;DHT22;66768;48.884;2.258;2023-03-12T03:47:13;11.00;99.90
41058;DHT22;66768;48.884;2.258;2023-03-12T03:49:42;10.90;99.90
41058;DHT22;66768;48.884;2.258;2023-03-12T03:52:08;11.00;99.90
41058;DHT22;66768;48.884;2.258;2023-03-12T03:54:35;10.90;99.90
41058;DHT22;66768;48.884;2.258;2023-03-12T03:57:02;10.90;99.90
41058;DHT22;66768;48.884;2.258;2023-03-12T03:59:30;10.90;99.90
41058;DHT22;66768;48.884;2.258;2023-03-12T04:01:56;10.90;99.90
41058;DHT22;66768;48.884;2.258;2023-03-12T04:04:24;10.90;99.90
41058;DHT22;66768;48.884;2.258;2023-03-12T04:06:52;10.90;99.90
41058;DHT22;66768;48.884;2.258;2023-03-12T04:09:19;10.90;99.90
41058;DHT22;66768;48.884;2.258;2023-03-12T04:11:47;10.80;99.90
41058;DHT22;66768;48.884;2.258;2023-03-12T04:14:14;10.90;99.90
41058;DHT22;66768;48.884;2.258;2023-03-12T04:16:40;10.90;99.90
41058;DHT22;66768;48.884;2.258;2023-03-12T04:19:07;10.80;99.90
41058;DHT22;66768;48.884;2.258;2023-03-12T04:21:34;10.90;99.90
41058;DHT22;66768;48.884;2.258;2023-03-12T04:24:06;10.90;99.90
41058;DHT22;66768;48.884;2.258;2023-03-12T04:26:33;10.90;99.90
41058;DHT22;66768;48.884;2.258;2023-03-12T04:29:00;10.90;99.90
41058;DHT22;66768;48.884;2.258;2023-03-12T04:31:27;10.90;99.90
41058;DHT22;66768;48.884;2.258;2023-03-12T04:33:53;10.90;99.90
41058;DHT22;66768;48.884;2.258;2023-03-12T04:36:21;10.90;99.90
41058;DHT22;66768;48.884;2.258;2023-03-12T04:38:48;10.90;99.90
41058;DHT22;66768;48.884;2.258;2023-03-12T04:41:16;10.90;99.90
41058;DHT22;66768;48.884;2.258;2023-03-12T04:43:43;10.90;99.90
41058;DHT22;66768;48.884;2.258;2023-03-12T04:46:10;10.90;99.90
41058;DHT22;66768;48.884;2.258;2023-03-12T04:48:37;10.90;99.90
41058;DHT22;66768;48.884;2.258;2023-03-12T04:51:04;10.90;99.90
41058;DHT22;66768;48.884;2.258;2023-03-12T04:53:32;10.90;99.90
41058;DHT22;66768;48.884;2.258;2023-03-12T04:55:58;10.90;99.90
41058;DHT22;66768;48.884;2.258;2023-03-12T04:58:27;11.00;99.90
41058;DHT22;66768;48.884;2.258;2023-03-12T05:00:54;11.00;99.90
41058;DHT22;66768;48.884;2.258;2023-03-12T05:03:21;11.00;99.90
41058;DHT22;66768;48.884;2.258;2023-03-12T05:05:48;11.00;99.90
41058;DHT22;66768;48.884;2.258;2023-03-12T05:08:14;11.00;99.90
41058;DHT22;66768;48.884;2.258;2023-03-12T05:10:41;11.00;99.90
41058;DHT22;66768;48.884;2.258;2023-03-12T05:13:14;11.00;99.90
41058;DHT22;66768;48.884;2.258;2023-03-12T05:15:43;11.00;99.90
41058;DHT22;66768;48.884;2.258;2023-03-12T05:18:10;11.10;99.90
41058;DHT22;66768;48.884;2.258;2023-03-12T05:20:37;11.00;99.90
41058;DHT22;66768;48.884;2.258;2023-03-12T05:23:04;11.00;99.90
41058;DHT22;66768;48.884;2.258;2023-03-12T05:25:31;11.10;99.90
41058;DHT22;66768;48.884;2.258;2023-03-12T05:27:58;11.10;99.90
41058;DHT22;66768;48.884;2.258;2023-03-12T05:30:25;11.10;99.90
41058;DHT22;66768;48.884;2.258;2023-03-12T05:32:53;11.10;99.90
41058;DHT22;66768;48.884;2.258;2023-03-12T05:35:20;11.10;99.90
41058;DHT22;66768;48.884;2.258;2023-03-12T05:37:46;11.10;99.90
41058;DHT22;66768;48.884;2.258;2023-03-12T05:40:13;11.10;99.90
41058;DHT22;66768;48.884;2.258;2023-03-12T05:42:40;11.10;99.90
41058;DHT22;66768;48.884;2.258;2023-03-12T05:45:08;11.00;99.90
41058;DHT22;66768;48.884;2.258;2023-03-12T05:47:35;11.10;99.90
41058;DHT22;66768;48.884;2.258;2023-03-12T05:50:04;11.10;99.90
41058;DHT22;66768;48.884;2.258;2023-03-12T05:52:31;11.10;99.90
41058;DHT22;66768;48.884;2.258;2023-03-12T05:54:58;11.10;99.90
41058;DHT22;66768;48.884;2.258;2023-03-12T05:57:24;11.10;99.90
41058;DHT22;66768;48.884;2.258;2023-03-12T05:59:52;11.10;99.90
41058;DHT22;66768;48.884;2.258;2023-03-12T06:02:19;11.20;99.90
41058;DHT22;66768;48.884;2.258;2023-03-12T06:04:46;11.10;99.90
41058;DHT22;66768;48.884;2.258;2023-03-12T06:07:14;11.20;99.90
41058;DHT22;66768;48.884;2.258;2023-03-12T06:09:41;11.20;99.90
41058;DHT22;66768;48.884;2.258;2023-03-12T06:12:08;11.20;99.90
41058;DHT22;66768;48.884;2.258;2023-03-12T06:14:35;11.20;99.90
41058;DHT22;66768;48.884;2.258;2023-03-12T06:17:02;11.20;99.90
41058;DHT22;66768;48.884;2.258;2023-03-12T06:19:28;11.20;99.90
41058;DHT22;66768;48.884;2.258;2023-03-12T06:21:56;11.20;99.90
41058;DHT22;66768;48.884;2.258;2023-03-12T06:24:24;11.20;99.90
41058;DHT22;66768;48.884;2.258;2023-03-12T06:26:51;11.20;99.90
41058;DHT22;66768;48.884;2.258;2023-03-12T06:29:18;11.20;99.90
41058;DHT22;66768;48.884;2.258;2023-03-12T06:31:45;11.20;99.90
41058;DHT22;66768;48.884;2.258;2023-03-12T06:34:12;11.20;99.90
41058;DHT22;66768;48.884;2.258;2023-03-12T06:36:41;11.20;99.90
41058;DHT22;66768;48.884;2.258;2023-03-12T06:39:08;11.20;99.90
41058;DHT22;66768;48.884;2.258;2023-03-12T06:41:36;11.20;99.90
41058;DHT22;66768;48.884;2.258;2023-03-12T06:44:03;11.20;99.90
41058;DHT22;66768;48.884;2.258;2023-03-12T06:46:31;11.20;99.90
41058;DHT22;66768;48.884;2.258;2023-03-12T06:48:58;11.20;99.90
41058;DHT22;66768;48.884;2.258;2023-03-12T06:51:24;11.20;99.90
41058;DHT22;66768;48.884;2.258;2023-03-12T06:53:51;11.20;99.90
41058;DHT22;66768;48.884;2.258;2023-03-12T06:56:18;11.20;99.90
41058;DHT22;66768;48.884;2.258;2023-03-12T06:58:46;11.20;99.90
41058;DHT22;66768;48.884;2.258;2023-03-12T07:01:13;11.20;99.90
41058;DHT22;66768;48.884;2.258;2023-03-12T07:03:40;11.20;99.90
41058;DHT22;66768;48.884;2.258;2023-03-12T07:06:12;11.30;99.90
41058;DHT22;66768;48.884;2.258;2023-03-12T07:08:41;11.30;99.90
41058;DHT22;66768;48.884;2.258;2023-03-12T07:11:08;11.30;99.90
41058;DHT22;66768;48.884;2.258;2023-03-12T07:13:34;11.30;99.90
41058;DHT22;66768;48.884;2.258;2023-03-12T07:16:03;11.30;99.90
41058;DHT22;66768;48.884;2.258;2023-03-12T07:18:31;11.30;99.90
41058;DHT22;66768;48.884;2.258;2023-03-12T07:20:58;11.40;99.90
41058;DHT22;66768;48.884;2.258;2023-03-12T07:23:25;11.40;99.90
41058;DHT22;66768;48.884;2.258;2023-03-12T07:25:52;11.40;99.90
41058;DHT22;66768;48.884;2.258;2023-03-12T07:28:19;11.40;99.90
41058;DHT22;66768;48.884;2.258;2023-03-12T07:30:46;11.40;99.90
41058;DHT22;66768;48.884;2.258;2023-03-12T07:33:17;11.40;99.90
41058;DHT22;66768;48.884;2.258;2023-03-12T07:35:45;11.50;99.90
41058;DHT22;66768;48.884;2.258;2023-03-12T07:38:13;11.50;99.90
41058;DHT22;66768;48.884;2.258;2023-03-12T07:40:40;11.50;99.90
41058;DHT22;66768;48.884;2.258;2023-03-12T07:43:07;11.50;99.90
41058;DHT22;66768;48.884;2.258;2023-03-12T07:45:36;11.50;99.90
41058;DHT22;66768;48.884;2.258;2023-03-12T07:48:04;11.50;99.90
41058;DHT22;66768;48.884;2.258;2023-03-12T07:50:32;11.60;99.90
41058;DHT22;66768;48.884;2.258;2023-03-12T07:52:59;11.60;99.90
41058;DHT22;66768;48.884;2.258;2023-03-12T07:55:26;11.60;99.90
41058;DHT22;66768;48.884;2.258;2023-03-12T07:57:53;11.70;99.90
41058;DHT22;66768;48.884;2.258;2023-03-12T08:00:23;11.70;99.90
41058;DHT22;66768;48.884;2.258;2023-03-12T08:02:50;11.70;99.90
41058;DHT22;66768;48.884;2.258;2023-03-12T08:05:17;11.70;99.90
41058;DHT22;66768;48.884;2.258;2023-03-12T08:07:46;11.70;99.90
41058;DHT22;66768;48.884;2.258;2023-03-12T08:10:12;11.70;99.90
41058;DHT22;66768;48.884;2.258;2023-03-12T08:12:41;11.80;99.90
41058;DHT22;66768;48.884;2.258;2023-03-12T08:15:08;11.80;99.90
41058;DHT22;66768;48.884;2.258;2023-03-12T08:17:37;11.90;99.90
41058;DHT22;66768;48.884;2.258;2023-03-12T08:20:05;11.90;99.90
41058;DHT22;66768;48.884;2.258;2023-03-12T08:22:34;11.90;99.90
41058;DHT22;66768;48.884;2.258;2023-03-12T08:25:03;12.00;99.90
41058;DHT22;66768;48.884;2.258;2023-03-12T08:27:30;12.00;99.90
41058;DHT22;66768;48.884;2.258;2023-03-12T08:29:58;12.10;99.90
41058;DHT22;66768;48.884;2.258;2023-03-12T08:32:25;12.10;99.90
41058;DHT22;66768;48.884;2.258;2023-03-12T08:34:52;12.20;99.90
41058;DHT22;66768;48.884;2.258;2023-03-12T08:37:19;12.30;99.90
41058;DHT22;66768;48.884;2.258;2023-03-12T08:39:46;12.30;99.90
41058;DHT22;66768;48.884;2.258;2023-03-12T08:42:15;12.30;99.90
41058;DHT22;66768;48.884;2.258;2023-03-12T08:44:42;12.40;99.90
41058;DHT22;66768;48.884;2.258;2023-03-12T08:47:08;12.50;99.90
41058;DHT22;66768;48.884;2.258;2023-03-12T08:49:35;12.40;99.90
41058;DHT22;66768;48.884;2.258;2023-03-12T08:52:02;12.50;99.90
41058;DHT22;66768;48.884;2.258;2023-03-12T08:54:29;12.50;99.90
41058;DHT22;66768;48.884;2.258;2023-03-12T08:56:56;12.50;99.90
41058;DHT22;66768;48.884;2.258;2023-03-12T08:59:24;12.60;99.90
41058;DHT22;66768;48.884;2.258;2023-03-12T09:01:51;12.50;99.90
41058;DHT22;66768;48.884;2.258;2023-03-12T09:04:18;12.60;99.90
41058;DHT22;66768;48.884;2.258;2023-03-12T09:06:45;12.60;99.90
41058;DHT22;66768;48.884;2.258;2023-03-12T09:09:12;12.60;99.90
41058;DHT22;66768;48.884;2.258;2023-03-12T09:11:39;12.60;99.90
41058;DHT22;66768;48.884;2.258;2023-03-12T09:14:06;12.60;99.90
41058;DHT22;66768;48.884;2.258;2023-03-12T09:16:35;12.70;99.90
41058;DHT22;66768;48.884;2.258;2023-03-12T09:19:02;12.70;99.90
41058;DHT22;66768;48.884;2.258;2023-03-12T09:21:29;12.70;99.90
41058;DHT22;66768;48.884;2.258;2023-03-12T09:23:56;12.70;99.90
41058;DHT22;66768;48.884;2.258;2023-03-12T09:26:23;12.70;99.90
41058;DHT22;66768;48.884;2.258;2023-03-12T09:28:50;12.80;99.90
41058;DHT22;66768;48.884;2.258;2023-03-12T09:31:17;12.80;99.90
41058;DHT22;66768;48.884;2.258;2023-03-12T09:33:45;12.80;99.90
41058;DHT22;66768;48.884;2.258;2023-03-12T09:36:12;12.90;99.90
41058;DHT22;66768;48.884;2.258;2023-03-12T09:38:39;13.00;99.90
41058;DHT22;66768;48.884;2.258;2023-03-12T09:41:16;12.90;99.90
41058;DHT22;66768;48.884;2.258;2023-03-12T09:43:48;13.00;99.90
41058;DHT22;66768;48.884;2.258;2023-03-12T09:46:23;13.10;99.90
41058;DHT22;66768;48.884;2.258;2023-03-12T09:48:54;13.10;99.90
41058;DHT22;66768;48.884;2.258;2023-03-12T09:51:27;13.20;99.90
41058;DHT22;66768;48.884;2.258;2023-03-12T09:53:56;13.20;99.90
41058;DHT22;66768;48.884;2.258;2023-03-12T09:56:25;13.10;99.90
41058;DHT22;66768;48.884;2.258;2023-03-12T09:58:53;13.10;99.90
41058;DHT22;66768;48.884;2.258;2023-03-12T10:01:33;13.10;99.90
41058;DHT22;66768;48.884;2.258;2023-03-12T10:07:00;13.20;99.90
41058;DHT22;66768;48.884;2.258;2023-03-12T10:09:44;13.20;99.90
41058;DHT22;66768;48.884;2.258;2023-03-12T10:12:20;13.20;99.90
41058;DHT22;66768;48.884;2.258;2023-03-12T10:14:56;13.20;99.90
41058;DHT22;66768;48.884;2.258;2023-03-12T10:17:38;13.20;99.90
41058;DHT22;66768;48.884;2.258;2023-03-12T10:20:25;13.20;99.90
41058;DHT22;66768;48.884;2.258;2023-03-12T10:23:00;13.20;99.90
41058;DHT22;66768;48.884;2.258;2023-03-12T10:25:33;13.30;99.90
41058;DHT22;66768;48.884;2.258;2023-03-12T10:28:10;13.30;99.90
41058;DHT22;66768;48.884;2.258;2023-03-12T10:30:40;13.40;99.90
41058;DHT22;66768;48.884;2.258;2023-03-12T10:33:12;13.40;99.90
41058;DHT22;66768;48.884;2.258;2023-03-12T10:35:41;13.40;99.90
41058;DHT22;66768;48.884;2.258;2023-03-12T10:38:13;13.50;99.90
41058;DHT22;66768;48.884;2.258;2023-03-12T10:40:42;13.50;99.90
41058;DHT22;66768;48.884;2.258;2023-03-12T10:43:09;13.50;99.90
41058;DHT22;66768;48.884;2.258;2023-03-12T10:45:39;13.50;99.90
41058;DHT22;66768;48.884;2.258;2023-03-12T10:48:09;13.50;99.90
41058;DHT22;66768;48.884;2.258;2023-03-12T10:50:38;13.50;99.90
41058;DHT22;66768;48.884;2.258;2023-03-12T10:53:18;13.50;99.90
41058;DHT22;66768;48.884;2.258;2023-03-12T10:56:01;13.50;99.90
41058;DHT22;66768;48.884;2.258;2023-03-12T10:58:35;13.50;99.90
41058;DHT22;66768;48.884;2.258;2023-03-12T11:01:04;13.60;99.90
41058;DHT22;66768;48.884;2.258;2023-03-12T11:03:32;13.60;99.90
41058;DHT22;66768;48.884;2.258;2023-03-12T11:06:01;13.60;99.90
41058;DHT22;66768;48.884;2.258;2023-03-12T11:08:31;13.70;99.90
41058;DHT22;66768;48.884;2.258;2023-03-12T11:11:00;13.70;99.90
41058;DHT22;66768;48.884;2.258;2023-03-12T11:13:29;13.70;99.90
41058;DHT22;66768;48.884;2.258;2023-03-12T11:15:58;13.70;99.90
41058;DHT22;66768;48.884;2.258;2023-03-12T11:18:33;13.60;99.90
41058;DHT22;66768;48.884;2.258;2023-03-12T11:21:13;13.70;99.90
41058;DHT22;66768;48.884;2.258;2023-03-12T11:23:45;13.70;99.90
41058;DHT22;66768;48.884;2.258;2023-03-12T11:26:17;13.80;99.90
41058;DHT22;66768;48.884;2.258;2023-03-12T11:28:47;13.80;99.90
41058;DHT22;66768;48.884;2.258;2023-03-12T11:31:19;13.90;99.90
41058;DHT22;66768;48.884;2.258;2023-03-12T11:33:47;13.90;99.90
41058;DHT22;66768;48.884;2.258;2023-03-12T11:36:34;14.00;99.90
41058;DHT22;66768;48.884;2.258;2023-03-12T11:39:09;14.00;99.90
41058;DHT22;66768;48.884;2.258;2023-03-12T11:41:54;14.00;99.90
41058;DHT22;66768;48.884;2.258;2023-03-12T11:44:26;14.00;99.90
41058;DHT22;66768;48.884;2.258;2023-03-12T11:47:02;14.00;99.90
41058;DHT22;66768;48.884;2.258;2023-03-12T11:49:45;14.00;99.90
41058;DHT22;66768;48.884;2.258;2023-03-12T11:52:18;14.00;99.90
41058;DHT22;66768;48.884;2.258;2023-03-12T11:55:07;14.10;99.90
41058;DHT22;66768;48.884;2.258;2023-03-12T11:57:48;14.10;99.90
41058;DHT22;66768;48.884;2.258;2023-03-12T12:00:25;14.20;99.90
41058;DHT22;66768;48.884;2.258;2023-03-12T12:05:53;14.30;99.90
41058;DHT22;66768;48.884;2.258;2023-03-12T12:08:39;14.30;99.90
41058;DHT22;66768;48.884;2.258;2023-03-12T12:11:14;14.30;99.90
41058;DHT22;66768;48.884;2.258;2023-03-12T12:13:51;14.30;99.90
41058;DHT22;66768;48.884;2.258;2023-03-12T12:19:21;14.30;99.90
41058;DHT22;66768;48.884;2.258;2023-03-12T12:22:00;14.30;99.90
41058;DHT22;66768;48.884;2.258;2023-03-12T12:24:39;14.30;99.90
41058;DHT22;66768;48.884;2.258;2023-03-12T12:27:17;14.30;99.90
41058;DHT22;66768;48.884;2.258;2023-03-12T12:30:00;14.30;99.90
41058;DHT22;66768;48.884;2.258;2023-03-12T12:32:38;14.30;99.90
41058;DHT22;66768;48.884;2.258;2023-03-12T12:35:18;14.40;99.90
41058;DHT22;66768;48.884;2.258;2023-03-12T12:37:52;14.40;99.90
41058;DHT22;66768;48.884;2.258;2023-03-12T12:40:24;14.40;99.90
41058;DHT22;66768;48.884;2.258;2023-03-12T12:43:15;14.40;99.90
41058;DHT22;66768;48.884;2.258;2023-03-12T12:45:47;14.40;99.90
41058;DHT22;66768;48.884;2.258;2023-03-12T12:48:17;14.40;99.90
41058;DHT22;66768;48.884;2.258;2023-03-12T12:50:46;14.40;99.90
41058;DHT22;66768;48.884;2.258;2023-03-12T12:53:20;14.40;99.90
41058;DHT22;66768;48.884;2.258;2023-03-12T12:55:59;14.40;99.90
41058;DHT22;66768;48.884;2.258;2023-03-12T13:01:23;14.60;99.90
41058;DHT22;66768;48.884;2.258;2023-03-12T13:03:58;14.60;99.90
41058;DHT22;66768;48.884;2.258;2023-03-12T13:06:27;14.60;99.90
41058;DHT22;66768;48.884;2.258;2023-03-12T13:09:12;14.60;99.90
41058;DHT22;66768;48.884;2.258;2023-03-12T13:11:43;14.60;99.90
41058;DHT22;66768;48.884;2.258;2023-03-12T13:14:20;14.60;99.90
41058;DHT22;66768;48.884;2.258;2023-03-12T13:16:47;14.60;99.90
41058;DHT22;66768;48.884;2.258;2023-03-12T13:19:24;14.60;99.90
41058;DHT22;66768;48.884;2.258;2023-03-12T13:21:58;14.60;99.90
41058;DHT22;66768;48.884;2.258;2023-03-12T13:24:30;14.60;99.90
41058;DHT22;66768;48.884;2.258;2023-03-12T13:27:03;14.60;99.90
41058;DHT22;66768;48.884;2.258;2023-03-12T13:29:37;14.70;99.90
41058;DHT22;66768;48.884;2.258;2023-03-12T13:32:09;14.70;99.90
41058;DHT22;66768;48.884;2.258;2023-03-12T13:34:56;14.70;99.90
41058;DHT22;66768;48.884;2.258;2023-03-12T13:38:00;14.60;99.90
41058;DHT22;66768;48.884;2.258;2023-03-12T13:40:53;14.70;99.90
41058;DHT22;66768;48.884;2.258;2023-03-12T13:43:48;14.60;99.90
41058;DHT22;66768;48.884;2.258;2023-03-12T13:46:55;14.70;99.90
41058;DHT22;66768;48.884;2.258;2023-03-12T13:49:23;14.70;99.90
41058;DHT22;66768;48.884;2.258;2023-03-12T13:51:55;14.60;99.90
41058;DHT22;66768;48.884;2.258;2023-03-12T13:54:27;14.60;99.90
41058;DHT22;66768;48.884;2.258;2023-03-12T13:57:00;14.60;99.90
41058;DHT22;66768;48.884;2.258;2023-03-12T13:59:28;14.60;99.90
41058;DHT22;66768;48.884;2.258;2023-03-12T14:02:00;14.70;99.90
41058;DHT22;66768;48.884;2.258;2023-03-12T14:04:33;14.60;99.90
41058;DHT22;66768;48.884;2.258;2023-03-12T14:07:16;14.70;99.90
41058;DHT22;66768;48.884;2.258;2023-03-12T14:09:51;14.60;99.90
41058;DHT22;66768;48.884;2.258;2023-03-12T14:12:22;14.60;99.90
41058;DHT22;66768;48.884;2.258;2023-03-12T14:15:06;14.60;99.90
41058;DHT22;66768;48.884;2.258;2023-03-12T14:17:37;14.60;99.90
41058;DHT22;66768;48.884;2.258;2023-03-12T14:20:11;14.60;99.90
41058;DHT22;66768;48.884;2.258;2023-03-12T14:22:42;14.60;99.90
41058;DHT22;66768;48.884;2.258;2023-03-12T14:25:16;14.60;99.90
41058;DHT22;66768;48.884;2.258;2023-03-12T14:27:48;14.60;99.90
41058;DHT22;66768;48.884;2.258;2023-03-12T14:30:20;14.60;99.90
41058;DHT22;66768;48.884;2.258;2023-03-12T14:32:52;14.60;99.90
41058;DHT22;66768;48.884;2.258;2023-03-12T14:35:22;14.60;99.90
41058;DHT22;66768;48.884;2.258;2023-03-12T14:37:54;14.60;99.90
41058;DHT22;66768;48.884;2.258;2023-03-12T14:40:25;14.60;99.90
41058;DHT22;66768;48.884;2.258;2023-03-12T14:42:58;14.50;99.90
41058;DHT22;66768;48.884;2.258;2023-03-12T14:45:25;14.60;99.90
41058;DHT22;66768;48.884;2.258;2023-03-12T14:47:55;14.60;99.90
41058;DHT22;66768;48.884;2.258;2023-03-12T14:50:25;14.70;99.90
41058;DHT22;66768;48.884;2.258;2023-03-12T14:52:53;14.60;99.90
41058;DHT22;66768;48.884;2.258;2023-03-12T14:55:21;14.60;99.90
41058;DHT22;66768;48.884;2.258;2023-03-12T14:57:52;14.60;99.90
41058;DHT22;66768;48.884;2.258;2023-03-12T15:00:28;14.60;99.90
41058;DHT22;66768;48.884;2.258;2023-03-12T15:03:01;14.60;99.90
41058;DHT22;66768;48.884;2.258;2023-03-12T15:05:29;14.60;99.90
41058;DHT22;66768;48.884;2.258;2023-03-12T15:08:00;14.60;99.90
41058;DHT22;66768;48.884;2.258;2023-03-12T15:10:29;14.60;99.90
41058;DHT22;66768;48.884;2.258;2023-03-12T15:12:58;14.60;99.90
41058;DHT22;66768;48.884;2.258;2023-03-12T15:15:31;14.60;99.90
41058;DHT22;66768;48.884;2.258;2023-03-12T15:18:03;14.60;99.90
41058;DHT22;66768;48.884;2.258;2023-03-12T15:20:31;14.60;99.90
41058;DHT22;66768;48.884;2.258;2023-03-12T15:22:59;14.60;99.90
41058;DHT22;66768;48.884;2.258;2023-03-12T15:25:28;14.60;99.90
41058;DHT22;66768;48.884;2.258;2023-03-12T15:28:05;14.50;99.90
41058;DHT22;66768;48.884;2.258;2023-03-12T15:30:34;14.50;99.90
41058;DHT22;66768;48.884;2.258;2023-03-12T15:33:08;14.50;99.90
41058;DHT22;66768;48.884;2.258;2023-03-12T15:35:38;14.50;99.90
41058;DHT22;66768;48.884;2.258;2023-03-12T15:38:13;14.50;99.90
41058;DHT22;66768;48.884;2.258;2023-03-12T15:40:40;14.40;99.90
41058;DHT22;66768;48.884;2.258;2023-03-12T15:43:17;14.40;99.90
41058;DHT22;66768;48.884;2.258;2023-03-12T15:45:44;14.40;99.90
41058;DHT22;66768;48.884;2.258;2023-03-12T15:48:20;14.30;99.90
41058;DHT22;66768;48.884;2.258;2023-03-12T15:50:48;14.30;99.90
41058;DHT22;66768;48.884;2.258;2023-03-12T15:53:27;14.30;99.90
41058;DHT22;66768;48.884;2.258;2023-03-12T15:56:02;14.30;99.90
41058;DHT22;66768;48.884;2.258;2023-03-12T15:58:32;14.30;99.90
41058;DHT22;66768;48.884;2.258;2023-03-12T16:01:09;14.20;99.90